Odder, Denmark
Current Conditions -  °F | °C
As of 11:20 AM on Monday 26 Jan 2015 (Local Time) from EKAH Reporting Station
Haze Haze  
Wind Chill: 30°   Ceiling: 200
Heat Index: 37°   Visibility: 2.4mi
Dew Point: 36°   Wind: 10mph
Humidity: 93%   Direction: 190°S
Pressure: 29.85"   Gusts: NA
Location:  55.97°N, 10.15°E
Report Text: EKAH 261020Z AUTO 19009KT 130V260 3900NDV BR OVC002///03/02 Q1011 R99/110195
Loading
Personal Weather Stations






























Interactive Weather Map New forecast layout! Learn more

10-Day Weather Forecast

Advertisements
Track Severe Weather on mobile